createdAt,value
2022-11-05T00:01:55.236Z,11.77
2022-11-05T00:05:16.648Z,11.70
2022-11-05T00:08:38.143Z,11.68
2022-11-05T00:11:59.600Z,11.72
2022-11-05T00:15:21.262Z,11.72
2022-11-05T00:18:24.099Z,11.70
2022-11-05T00:21:45.116Z,11.65
2022-11-05T00:25:06.332Z,11.64
2022-11-05T00:28:09.011Z,11.61
2022-11-05T00:31:14.028Z,11.60
2022-11-05T00:34:16.749Z,11.52
2022-11-05T00:37:19.451Z,11.50
2022-11-05T00:40:22.161Z,11.42
2022-11-05T00:43:43.915Z,11.24
2022-11-05T00:46:46.610Z,11.10
2022-11-05T00:49:49.310Z,11.13
2022-11-05T00:52:57.172Z,11.16
2022-11-05T00:56:00.676Z,11.09
2022-11-05T00:59:03.283Z,11.10
2022-11-05T01:02:06.046Z,11.03
2022-11-05T01:05:09.219Z,11.00
2022-11-05T01:08:13.052Z,10.94
2022-11-05T01:11:33.577Z,10.89
2022-11-05T01:14:36.691Z,10.91
2022-11-05T01:17:39.417Z,10.78
2022-11-05T01:20:42.609Z,10.72
2022-11-05T01:23:45.923Z,10.75
2022-11-05T01:26:48.593Z,10.72
2022-11-05T01:29:51.257Z,10.74
2022-11-05T01:32:54.068Z,10.71
2022-11-05T01:35:56.834Z,10.65
2022-11-05T01:38:59.552Z,10.62
2022-11-05T01:42:02.660Z,10.64
2022-11-05T01:45:15.278Z,10.56
2022-11-05T01:48:32.583Z,10.59
2022-11-05T01:51:35.599Z,10.56
2022-11-05T01:54:39.909Z,10.51
2022-11-05T01:57:42.681Z,10.51
2022-11-05T02:00:45.473Z,10.55
2022-11-05T02:03:50.553Z,10.56
2022-11-05T02:06:54.284Z,10.57
2022-11-05T02:10:08.843Z,10.60
2022-11-05T02:13:12.135Z,10.57
2022-11-05T02:16:28.086Z,10.55
2022-11-05T02:20:10.354Z,10.55
2022-11-05T02:23:30.833Z,10.51
2022-11-05T02:27:04.586Z,10.53
2022-11-05T02:30:26.029Z,10.52
2022-11-05T02:33:56.664Z,10.47
2022-11-05T02:37:08.078Z,10.47
2022-11-05T02:40:16.850Z,10.48
2022-11-05T02:43:35.985Z,10.49
2022-11-05T02:47:04.796Z,10.42
2022-11-05T02:50:16.446Z,10.34
2022-11-05T02:53:31.295Z,10.34
2022-11-05T02:56:39.371Z,10.36
2022-11-05T02:59:42.757Z,10.31
2022-11-05T03:02:45.345Z,10.32
2022-11-05T03:06:07.098Z,10.31
2022-11-05T03:09:43.256Z,10.26
2022-11-05T03:13:09.508Z,10.26
2022-11-05T03:16:21.303Z,10.25
2022-11-05T03:19:36.820Z,10.22
2022-11-05T03:22:46.786Z,10.23
2022-11-05T03:25:55.681Z,10.23
2022-11-05T03:29:08.642Z,10.22
2022-11-05T03:32:13.661Z,10.19
2022-11-05T03:35:34.394Z,10.22
2022-11-05T03:38:41.823Z,10.23
2022-11-05T03:41:49.208Z,10.27
2022-11-05T03:44:57.100Z,10.31
2022-11-05T03:48:01.830Z,10.24
2022-11-05T03:51:04.866Z,10.20
2022-11-05T03:54:07.981Z,10.16
2022-11-05T03:57:18.496Z,10.23
2022-11-05T04:00:22.510Z,10.15
2022-11-05T04:03:25.562Z,10.17
2022-11-05T04:06:46.609Z,10.19
2022-11-05T04:10:07.975Z,10.16
2022-11-05T04:13:26.478Z,10.16
2022-11-05T04:16:48.164Z,10.20
2022-11-05T04:20:09.627Z,10.17
2022-11-05T04:23:31.133Z,10.16
2022-11-05T04:26:34.610Z,10.07
2022-11-05T04:29:56.019Z,10.14
2022-11-05T04:33:04.294Z,10.02
2022-11-05T04:36:07.679Z,9.99
2022-11-05T04:39:10.199Z,10.03
2022-11-05T04:42:13.213Z,10.02
2022-11-05T04:45:15.781Z,9.94
2022-11-05T04:48:18.785Z,9.97
2022-11-05T04:51:21.207Z,9.98
2022-11-05T04:54:24.324Z,9.97
2022-11-05T04:57:26.749Z,9.91
2022-11-05T05:00:29.854Z,9.94
2022-11-05T05:03:32.380Z,10.00
2022-11-05T05:06:35.379Z,9.93
2022-11-05T05:09:37.896Z,9.93
2022-11-05T05:12:40.962Z,9.89
2022-11-05T05:15:43.389Z,9.91
2022-11-05T05:18:46.721Z,9.91
2022-11-05T05:21:49.551Z,9.95
2022-11-05T05:24:53.077Z,9.91
2022-11-05T05:27:59.117Z,9.96
2022-11-05T05:31:02.218Z,9.83
2022-11-05T05:34:05.532Z,9.79
2022-11-05T05:37:08.596Z,9.76
2022-11-05T05:40:11.890Z,9.78
2022-11-05T05:43:15.012Z,9.77
2022-11-05T05:46:19.038Z,9.83
2022-11-05T05:49:22.066Z,9.79
2022-11-05T05:52:24.539Z,9.75
2022-11-05T05:55:27.665Z,9.77
2022-11-05T05:58:36.075Z,9.70
2022-11-05T06:01:39.611Z,9.73
2022-11-05T06:04:43.097Z,9.71
2022-11-05T06:07:45.902Z,9.76
2022-11-05T06:10:52.084Z,9.78
2022-11-05T06:13:55.262Z,9.75
2022-11-05T06:16:57.968Z,9.72
2022-11-05T06:20:00.755Z,9.77
2022-11-05T06:23:03.514Z,9.75
2022-11-05T06:26:09.482Z,9.79
2022-11-05T06:29:12.414Z,9.82
2022-11-05T06:32:15.075Z,9.82
2022-11-05T06:35:18.003Z,9.89
2022-11-05T06:38:21.173Z,9.92
2022-11-05T06:41:23.933Z,10.04
2022-11-05T06:44:26.651Z,10.04
2022-11-05T06:47:29.420Z,10.01
2022-11-05T06:50:32.164Z,10.04
2022-11-05T06:53:35.449Z,10.10
2022-11-05T06:56:38.158Z,10.17
2022-11-05T06:59:41.369Z,10.23
2022-11-05T07:02:44.699Z,10.28
2022-11-05T07:05:49.507Z,10.30
2022-11-05T07:08:52.206Z,10.41
2022-11-05T07:11:57.232Z,10.55
2022-11-05T07:15:00.062Z,10.62
2022-11-05T07:18:02.819Z,10.73
2022-11-05T07:21:05.794Z,10.88
2022-11-05T07:24:08.966Z,10.97
2022-11-05T07:27:11.746Z,11.13
2022-11-05T07:30:14.635Z,11.17
2022-11-05T07:33:17.823Z,11.19
2022-11-05T07:36:20.617Z,11.23
2022-11-05T07:39:23.483Z,11.31
2022-11-05T07:42:26.261Z,11.38
2022-11-05T07:45:30.893Z,11.40
2022-11-05T07:48:33.787Z,11.39
2022-11-05T07:51:36.515Z,11.42
2022-11-05T07:54:39.231Z,11.48
2022-11-05T07:57:43.642Z,11.43
2022-11-05T08:00:46.542Z,11.39
2022-11-05T08:03:49.603Z,11.39
2022-11-05T08:06:52.013Z,11.46
2022-11-05T08:09:55.115Z,11.50
2022-11-05T08:12:58.861Z,11.63
2022-11-05T08:16:02.282Z,11.56
2022-11-05T08:19:04.866Z,11.58
2022-11-05T08:22:09.968Z,11.63
2022-11-05T08:25:13.223Z,11.71
2022-11-05T08:28:16.270Z,11.70
2022-11-05T08:31:18.698Z,11.80
2022-11-05T08:34:21.865Z,11.98
2022-11-05T08:37:24.357Z,12.11
2022-11-05T08:40:27.542Z,12.32
2022-11-05T08:43:30.033Z,12.45
2022-11-05T08:46:40.377Z,12.64
2022-11-05T08:49:43.991Z,12.84
2022-11-05T08:52:47.010Z,12.98
2022-11-05T08:55:51.425Z,13.12
2022-11-05T08:58:54.406Z,13.28
2022-11-05T09:01:57.193Z,13.38
2022-11-05T09:05:01.154Z,13.46
2022-11-05T09:08:11.817Z,13.43
2022-11-05T09:11:15.024Z,13.33
2022-11-05T09:14:17.546Z,13.28
2022-11-05T09:17:21.531Z,13.17
2022-11-05T09:20:24.021Z,13.07
2022-11-05T09:23:26.995Z,13.09
2022-11-05T09:26:29.362Z,13.13
2022-11-05T09:29:32.474Z,13.14
2022-11-05T09:32:35.039Z,13.14
2022-11-05T09:35:40.116Z,13.29
2022-11-05T09:38:42.901Z,13.28
2022-11-05T09:41:46.996Z,13.45
2022-11-05T09:44:52.023Z,13.52
2022-11-05T09:48:14.999Z,13.74
2022-11-05T09:51:23.656Z,14.03
2022-11-05T09:54:31.728Z,14.66
2022-11-05T09:57:54.763Z,15.15
2022-11-05T10:00:58.616Z,15.58
2022-11-05T10:04:07.982Z,15.68
2022-11-05T10:07:16.392Z,15.63
2022-11-05T10:11:07.522Z,15.72
2022-11-05T10:14:32.052Z,16.01
2022-11-05T10:17:39.229Z,16.74
2022-11-05T10:20:43.071Z,17.12
2022-11-05T10:23:47.437Z,17.35
2022-11-05T10:26:52.897Z,17.43
2022-11-05T10:29:55.819Z,17.50
2022-11-05T10:33:02.379Z,17.34
2022-11-05T10:36:09.623Z,17.08
2022-11-05T10:39:15.624Z,16.95
2022-11-05T10:42:43.330Z,16.85
2022-11-05T10:46:18.090Z,16.74
2022-11-05T10:49:39.594Z,16.64
2022-11-05T10:52:51.450Z,16.37
2022-11-05T10:55:54.655Z,16.29
2022-11-05T10:59:00.005Z,16.16
2022-11-05T11:02:27.061Z,16.19
2022-11-05T11:05:36.871Z,16.18
2022-11-05T11:08:43.422Z,16.33
2022-11-05T11:11:46.264Z,16.54
2022-11-05T11:15:14.390Z,16.63
2022-11-05T11:18:34.555Z,16.64
2022-11-05T11:21:41.706Z,16.55
2022-11-05T11:24:48.088Z,16.53
2022-11-05T11:27:51.651Z,16.53
2022-11-05T11:31:02.585Z,16.66
2022-11-05T11:34:26.763Z,17.06
2022-11-05T11:37:42.127Z,17.43
2022-11-05T11:40:45.439Z,17.66
2022-11-05T11:43:48.568Z,17.82
2022-11-05T11:46:54.215Z,17.82
2022-11-05T11:49:59.660Z,17.68
2022-11-05T11:53:20.767Z,17.43
2022-11-05T11:56:23.585Z,17.30
2022-11-05T11:59:53.752Z,17.15
2022-11-05T12:03:07.175Z,17.11
2022-11-05T12:06:29.947Z,16.92
2022-11-05T12:09:41.510Z,16.67
2022-11-05T12:13:20.483Z,16.53
2022-11-05T12:16:42.103Z,16.42
2022-11-05T12:20:02.125Z,16.37
2022-11-05T12:23:23.714Z,16.24
2022-11-05T12:26:44.729Z,16.17
2022-11-05T12:30:07.651Z,16.05
2022-11-05T12:33:21.427Z,15.83
2022-11-05T12:36:55.559Z,15.71
2022-11-05T12:40:22.804Z,15.47
2022-11-05T12:43:43.932Z,15.40
2022-11-05T12:47:11.375Z,15.32
2022-11-05T12:50:41.795Z,15.29
2022-11-05T12:53:56.520Z,15.17
2022-11-05T12:57:03.646Z,15.04
2022-11-05T13:00:21.849Z,14.96
2022-11-05T13:03:31.069Z,14.94
2022-11-05T13:06:49.789Z,14.83
2022-11-05T13:09:59.419Z,14.80
2022-11-05T13:13:11.198Z,14.73
2022-11-05T13:16:24.378Z,14.70
2022-11-05T13:19:33.513Z,14.70
2022-11-05T13:22:44.583Z,14.61
2022-11-05T13:25:59.486Z,14.58
2022-11-05T13:29:07.519Z,14.52
2022-11-05T13:32:31.302Z,14.42
2022-11-05T13:36:18.938Z,14.40
2022-11-05T13:39:27.781Z,14.35
2022-11-05T13:42:52.255Z,14.22
2022-11-05T13:45:54.938Z,14.22
2022-11-05T13:49:28.132Z,14.18
2022-11-05T13:52:54.545Z,14.12
2022-11-05T13:56:18.131Z,14.08
2022-11-05T13:59:35.852Z,14.05
2022-11-05T14:02:45.429Z,13.84
2022-11-05T14:06:02.301Z,13.77
2022-11-05T14:09:10.237Z,13.75
2022-11-05T14:12:35.279Z,13.69
2022-11-05T14:15:38.134Z,13.67
2022-11-05T14:18:46.633Z,13.63
2022-11-05T14:21:59.127Z,13.60
2022-11-05T14:25:20.952Z,13.57
2022-11-05T14:28:36.360Z,13.58
2022-11-05T14:35:17.365Z,13.42
2022-11-05T14:38:26.053Z,13.44
2022-11-05T14:41:28.940Z,13.38
2022-11-05T14:44:35.060Z,13.35
2022-11-05T14:47:44.457Z,13.36
2022-11-05T14:50:49.211Z,13.26
2022-11-05T14:54:27.502Z,13.16
2022-11-05T14:57:42.482Z,13.11
2022-11-05T15:00:47.236Z,13.06
2022-11-05T15:04:26.144Z,13.00
2022-11-05T15:07:37.630Z,12.99
2022-11-05T15:10:41.870Z,12.87
2022-11-05T15:13:53.887Z,12.82
2022-11-05T15:17:04.004Z,12.85
2022-11-05T15:20:06.714Z,12.79
2022-11-05T15:23:16.885Z,12.76
2022-11-05T15:26:52.466Z,12.72
2022-11-05T15:29:55.308Z,12.82
2022-11-05T15:33:27.920Z,12.69
2022-11-05T15:36:31.541Z,12.67
2022-11-05T15:39:40.992Z,12.75
2022-11-05T15:42:43.752Z,12.59
2022-11-05T15:45:59.574Z,12.60
2022-11-05T15:49:07.100Z,12.58
2022-11-05T15:52:15.640Z,12.52
2022-11-05T15:55:24.673Z,12.47
2022-11-05T15:58:28.327Z,12.49
2022-11-05T16:01:46.897Z,12.50
2022-11-05T16:04:51.257Z,12.51
2022-11-05T16:07:54.119Z,12.53
2022-11-05T16:11:01.087Z,12.47
2022-11-05T16:14:16.212Z,12.52
2022-11-05T16:17:22.755Z,12.39
2022-11-05T16:20:28.345Z,12.39
2022-11-05T16:23:49.699Z,12.49
2022-11-05T16:27:02.633Z,12.40
2022-11-05T16:30:06.401Z,12.36
2022-11-05T16:33:13.591Z,12.36
2022-11-05T16:36:17.233Z,12.36
2022-11-05T16:39:19.997Z,12.27
2022-11-05T16:42:23.077Z,12.20
2022-11-05T16:45:25.655Z,12.23
2022-11-05T16:48:29.250Z,12.19
2022-11-05T16:51:31.858Z,12.12
2022-11-05T16:54:34.941Z,12.15
2022-11-05T16:57:37.503Z,12.17
2022-11-05T17:00:41.172Z,12.20
2022-11-05T17:03:45.086Z,12.03
2022-11-05T17:06:49.931Z,12.12
2022-11-05T17:09:52.488Z,12.01
2022-11-05T17:12:55.879Z,12.00
2022-11-05T17:15:58.447Z,11.97
2022-11-05T17:19:01.470Z,11.95
2022-11-05T17:22:04.343Z,11.95
2022-11-05T17:25:07.745Z,11.93
2022-11-05T17:28:11.229Z,11.91
2022-11-05T17:31:15.492Z,11.96
2022-11-05T17:34:17.929Z,11.89
2022-11-05T17:37:23.143Z,11.86
2022-11-05T17:40:25.669Z,11.76
2022-11-05T17:43:28.767Z,11.76
2022-11-05T17:46:31.631Z,11.77
2022-11-05T17:49:34.638Z,11.80
2022-11-05T17:52:37.214Z,11.84
2022-11-05T17:55:44.298Z,11.77
2022-11-05T17:58:47.152Z,11.64
2022-11-05T18:01:50.309Z,11.60
2022-11-05T18:04:53.223Z,11.63
2022-11-05T18:07:55.939Z,11.58
2022-11-05T18:10:58.926Z,11.56
2022-11-05T18:14:02.252Z,11.56
2022-11-05T18:17:04.881Z,11.50
2022-11-05T18:20:14.206Z,11.49
2022-11-05T18:23:21.302Z,11.51
2022-11-05T18:26:24.037Z,11.52
2022-11-05T18:29:26.850Z,11.55
2022-11-05T18:32:30.014Z,11.54
2022-11-05T18:35:32.993Z,11.53
2022-11-05T18:38:35.692Z,11.55
2022-11-05T18:41:39.008Z,11.58
2022-11-05T18:44:41.620Z,11.58
2022-11-05T18:47:44.564Z,11.55
2022-11-05T18:50:47.299Z,11.57
2022-11-05T18:53:50.084Z,11.60
2022-11-05T18:56:52.957Z,11.61
2022-11-05T18:59:56.517Z,11.62
2022-11-05T19:02:59.394Z,11.64
2022-11-05T19:06:04.368Z,11.67
2022-11-05T19:09:09.795Z,11.60
2022-11-05T19:12:12.773Z,11.60
2022-11-05T19:15:15.664Z,11.60
2022-11-05T19:18:18.422Z,11.59
2022-11-05T19:21:23.052Z,11.60
2022-11-05T19:24:25.775Z,11.58
2022-11-05T19:27:28.523Z,11.58
2022-11-05T19:30:31.298Z,11.63
2022-11-05T19:33:34.022Z,11.64
2022-11-05T19:36:37.275Z,11.64
2022-11-05T19:39:41.172Z,11.63
2022-11-05T19:42:43.751Z,11.59
2022-11-05T19:45:47.038Z,11.61
2022-11-05T19:48:50.184Z,11.61
2022-11-05T19:51:52.795Z,11.58
2022-11-05T19:54:55.523Z,11.57
2022-11-05T19:57:58.249Z,11.56
2022-11-05T20:01:01.966Z,11.58
2022-11-05T20:04:05.868Z,11.62
2022-11-05T20:07:08.265Z,11.52
2022-11-05T20:10:11.187Z,11.55
2022-11-05T20:13:19.691Z,11.54
2022-11-05T20:16:29.545Z,11.53
2022-11-05T20:19:32.158Z,11.53
2022-11-05T20:22:35.248Z,11.50
2022-11-05T20:25:37.844Z,11.49
2022-11-05T20:28:43.717Z,11.54
2022-11-05T20:31:46.286Z,11.52
2022-11-05T20:34:49.287Z,11.53
2022-11-05T20:37:54.209Z,11.54
2022-11-05T20:40:57.580Z,11.55
2022-11-05T20:44:00.115Z,11.53
2022-11-05T20:47:03.188Z,11.56
2022-11-05T20:50:06.412Z,11.55
2022-11-05T20:53:13.109Z,11.54
2022-11-05T20:56:26.285Z,11.52
2022-11-05T20:59:29.356Z,11.54
2022-11-05T21:02:31.940Z,11.55
2022-11-05T21:05:35.756Z,11.55
2022-11-05T21:08:38.326Z,11.51
2022-11-05T21:11:59.896Z,11.49
2022-11-05T21:15:02.437Z,11.50
2022-11-05T21:18:05.538Z,11.50
2022-11-05T21:21:12.862Z,11.46
2022-11-05T21:24:15.910Z,11.44
2022-11-05T21:27:18.502Z,11.46
2022-11-05T21:30:21.636Z,11.44
2022-11-05T21:33:24.092Z,11.48
2022-11-05T21:36:27.070Z,11.49
2022-11-05T21:39:29.849Z,11.48
2022-11-05T21:42:32.697Z,11.47
2022-11-05T21:45:35.157Z,11.47
2022-11-05T21:48:38.245Z,11.46
2022-11-05T21:51:59.120Z,11.48
2022-11-05T21:55:21.055Z,11.47
2022-11-05T21:58:42.497Z,11.46
2022-11-05T22:01:45.868Z,11.47
2022-11-05T22:04:54.771Z,11.48
2022-11-05T22:07:57.749Z,11.48
2022-11-05T22:11:03.768Z,11.47
2022-11-05T22:14:06.603Z,11.45
2022-11-05T22:17:10.252Z,11.46
2022-11-05T22:20:13.011Z,11.41
2022-11-05T22:23:15.689Z,11.41
2022-11-05T22:26:18.950Z,11.41
2022-11-05T22:29:22.559Z,11.43
2022-11-05T22:32:25.327Z,11.38
2022-11-05T22:35:29.022Z,11.41
2022-11-05T22:38:31.850Z,11.40
2022-11-05T22:41:34.710Z,11.35
2022-11-05T22:44:37.584Z,11.34
2022-11-05T22:47:43.571Z,11.32
2022-11-05T22:50:46.328Z,11.36
2022-11-05T22:53:49.631Z,11.35
2022-11-05T22:56:53.794Z,11.31
2022-11-05T22:59:56.540Z,11.27
2022-11-05T23:02:59.420Z,11.27
2022-11-05T23:06:05.546Z,11.29
2022-11-05T23:09:35.128Z,11.27
2022-11-05T23:12:37.978Z,11.27
2022-11-05T23:15:59.231Z,11.30
2022-11-05T23:19:20.539Z,11.28
2022-11-05T23:22:49.346Z,11.29
2022-11-05T23:25:56.744Z,11.26
2022-11-05T23:28:59.485Z,11.27
2022-11-05T23:32:20.918Z,11.29
2022-11-05T23:35:42.227Z,11.28
2022-11-05T23:38:45.337Z,11.34
2022-11-05T23:42:06.958Z,11.31
2022-11-05T23:45:28.871Z,11.26
2022-11-05T23:48:37.295Z,11.27
2022-11-05T23:51:40.183Z,11.29
2022-11-05T23:54:43.045Z,11.29
2022-11-05T23:57:46.414Z,11.26
